sensor_id;sensor_type;location;lat;lon;timestamp;pressure;altitude;pressure_sealevel;temperature;humidity
23361;BME280;11852;50.082;18.554;2022-12-18T00:00:02;100048.5;;;-3.49;83.38
23361;BME280;11852;50.082;18.554;2022-12-18T00:01:21;100053.5;;;-3.49;83.39
23361;BME280;11852;50.082;18.554;2022-12-18T00:02:26;100052.5;;;-3.48;83.38
23361;BME280;11852;50.082;18.554;2022-12-18T00:03:34;100053.5;;;-3.49;83.38
23361;BME280;11852;50.082;18.554;2022-12-18T00:04:43;100054.0;;;-3.49;83.4
23361;BME280;11852;50.082;18.554;2022-12-18T03:03:18;100140.5;;;-3.49;83.4
23361;BME280;11852;50.082;18.554;2022-12-18T03:05:53;100229.51;;;-3.44;83.19
23361;BME280;11852;50.082;18.554;2022-12-18T03:07:05;100225.5;;;-3.42;83.13
23361;BME280;11852;50.082;18.554;2022-12-18T03:47:15;100239.0;;;-3.48;83.13
23361;BME280;11852;50.082;18.554;2022-12-18T03:48:27;100257.5;;;-3.54;83.04
23361;BME280;11852;50.082;18.554;2022-12-18T03:49:38;100259.5;;;-3.53;82.99
23361;BME280;11852;50.082;18.554;2022-12-18T03:50:45;100258.5;;;-3.52;82.99
23361;BME280;11852;50.082;18.554;2022-12-18T03:52:03;100261.5;;;-3.52;83.1
23361;BME280;11852;50.082;18.554;2022-12-18T03:57:17;100261.5;;;-3.52;83.1
23361;BME280;11852;50.082;18.554;2022-12-18T03:58:25;100264.5;;;-3.47;83.06
23361;BME280;11852;50.082;18.554;2022-12-18T03:59:34;100266.0;;;-3.47;83.1
23361;BME280;11852;50.082;18.554;2022-12-18T04:00:42;100264.0;;;-3.55;83.17
23361;BME280;11852;50.082;18.554;2022-12-18T04:01:54;100262.5;;;-3.55;83.1
23361;BME280;11852;50.082;18.554;2022-12-18T05:08:23;100339.0;;;-3.37;82.43
23361;BME280;11852;50.082;18.554;2022-12-18T05:09:32;100342.01;;;-3.34;82.53
23361;BME280;11852;50.082;18.554;2022-12-18T05:10:45;100346.5;;;-3.35;82.46
23361;BME280;11852;50.082;18.554;2022-12-18T05:11:53;100350.0;;;-3.32;82.36
23361;BME280;11852;50.082;18.554;2022-12-18T05:54:42;100350.0;;;-3.32;82.36
23361;BME280;11852;50.082;18.554;2022-12-18T05:55:50;100377.5;;;-3.51;83.01
23361;BME280;11852;50.082;18.554;2022-12-18T05:57:00;100378.5;;;-3.51;83.04
23361;BME280;11852;50.082;18.554;2022-12-18T05:58:10;100375.5;;;-3.5;83.12
23361;BME280;11852;50.082;18.554;2022-12-18T05:59:19;100375.5;;;-3.49;83.17
23361;BME280;11852;50.082;18.554;2022-12-18T06:00:48;100374.5;;;-3.49;83.17
23361;BME280;11852;50.082;18.554;2022-12-18T06:01:58;100375.0;;;-3.45;83.09
23361;BME280;11852;50.082;18.554;2022-12-18T06:03:10;100376.5;;;-3.47;83.09
23361;BME280;11852;50.082;18.554;2022-12-18T06:04:18;100376.0;;;-3.51;83.17
23361;BME280;11852;50.082;18.554;2022-12-18T06:05:29;100377.5;;;-3.48;83.06
23361;BME280;11852;50.082;18.554;2022-12-18T06:44:08;100377.5;;;-3.48;83.06
23361;BME280;11852;50.082;18.554;2022-12-18T06:45:16;100424.5;;;-3.46;82.66
23361;BME280;11852;50.082;18.554;2022-12-18T06:46:28;100430.0;;;-3.43;82.63
23361;BME280;11852;50.082;18.554;2022-12-18T06:47:37;100428.0;;;-3.41;82.63
23361;BME280;11852;50.082;18.554;2022-12-18T06:48:48;100424.0;;;-3.39;82.63
23361;BME280;11852;50.082;18.554;2022-12-18T07:23:44;100457.0;;;-3.38;81.11
23361;BME280;11852;50.082;18.554;2022-12-18T07:24:52;100460.5;;;-3.4;81.01
23361;BME280;11852;50.082;18.554;2022-12-18T07:26:09;100462.0;;;-3.4;81.07
23361;BME280;11852;50.082;18.554;2022-12-18T07:27:14;100465.0;;;-3.35;80.96
23361;BME280;11852;50.082;18.554;2022-12-18T07:28:25;100465.5;;;-3.34;80.96
23361;BME280;11852;50.082;18.554;2022-12-18T08:07:56;100495.5;;;-3.26;81.15
23361;BME280;11852;50.082;18.554;2022-12-18T08:09:04;100494.5;;;-3.22;80.8
23361;BME280;11852;50.082;18.554;2022-12-18T08:10:16;100491.5;;;-3.29;80.58
23361;BME280;11852;50.082;18.554;2022-12-18T08:11:27;100490.5;;;-3.37;80.57
23361;BME280;11852;50.082;18.554;2022-12-18T08:12:36;100490.5;;;-3.36;80.74
23361;BME280;11852;50.082;18.554;2022-12-18T08:17:19;100490.5;;;-3.36;80.74
23361;BME280;11852;50.082;18.554;2022-12-18T08:18:35;100497.0;;;-3.41;80.6
23361;BME280;11852;50.082;18.554;2022-12-18T08:19:42;100500.0;;;-3.31;80.64
23361;BME280;11852;50.082;18.554;2022-12-18T08:20:49;100498.0;;;-3.26;80.85
23361;BME280;11852;50.082;18.554;2022-12-18T08:22:00;100501.5;;;-3.2;80.74
23361;BME280;11852;50.082;18.554;2022-12-18T08:23:08;100499.5;;;-3.13;80.82
23361;BME280;11852;50.082;18.554;2022-12-18T08:24:16;100501.5;;;-3.13;80.45
23361;BME280;11852;50.082;18.554;2022-12-18T08:25:23;100502.5;;;-3.09;80.09
23361;BME280;11852;50.082;18.554;2022-12-18T08:26:31;100503.5;;;-3.03;79.94
23361;BME280;11852;50.082;18.554;2022-12-18T08:27:38;100504.0;;;-3.07;79.82
23361;BME280;11852;50.082;18.554;2022-12-18T08:28:48;100501.5;;;-3.07;79.72
23361;BME280;11852;50.082;18.554;2022-12-18T08:29:56;100506.5;;;-3.06;79.32
23361;BME280;11852;50.082;18.554;2022-12-18T08:31:03;100506.5;;;-3.05;79.07
23361;BME280;11852;50.082;18.554;2022-12-18T08:32:11;100509.0;;;-3.02;78.78
23361;BME280;11852;50.082;18.554;2022-12-18T08:33:19;100508.5;;;-3.0;78.66
23361;BME280;11852;50.082;18.554;2022-12-18T08:34:28;100512.5;;;-3.07;78.93
23361;BME280;11852;50.082;18.554;2022-12-18T08:35:35;100513.0;;;-3.09;78.51
23361;BME280;11852;50.082;18.554;2022-12-18T08:36:45;100519.5;;;-3.14;78.95
23361;BME280;11852;50.082;18.554;2022-12-18T08:37:54;100518.01;;;-3.22;78.99
23361;BME280;11852;50.082;18.554;2022-12-18T08:39:03;100521.5;;;-3.3;79.44
23361;BME280;11852;50.082;18.554;2022-12-18T08:40:10;100523.5;;;-3.24;79.65
23361;BME280;11852;50.082;18.554;2022-12-18T08:41:18;100524.5;;;-3.17;79.6
23361;BME280;11852;50.082;18.554;2022-12-18T08:42:30;100524.5;;;-3.2;79.68
23361;BME280;11852;50.082;18.554;2022-12-18T08:43:43;100527.5;;;-3.12;79.29
23361;BME280;11852;50.082;18.554;2022-12-18T08:44:50;100530.51;;;-3.08;79.21
23361;BME280;11852;50.082;18.554;2022-12-18T08:45:59;100535.5;;;-3.0;78.93
23361;BME280;11852;50.082;18.554;2022-12-18T08:47:07;100534.0;;;-2.97;79.05
23361;BME280;11852;50.082;18.554;2022-12-18T08:48:14;100537.0;;;-3.07;79.18
23361;BME280;11852;50.082;18.554;2022-12-18T08:49:22;100537.5;;;-3.22;79.15
23361;BME280;11852;50.082;18.554;2022-12-18T08:50:32;100542.51;;;-3.18;78.61
23361;BME280;11852;50.082;18.554;2022-12-18T08:51:39;100542.51;;;-3.12;78.38
23361;BME280;11852;50.082;18.554;2022-12-18T08:52:46;100537.0;;;-3.05;78.25
23361;BME280;11852;50.082;18.554;2022-12-18T08:53:55;100537.0;;;-3.0;78.61
23361;BME280;11852;50.082;18.554;2022-12-18T08:55:04;100538.0;;;-2.91;78.81
23361;BME280;11852;50.082;18.554;2022-12-18T08:56:14;100541.5;;;-2.87;78.63
23361;BME280;11852;50.082;18.554;2022-12-18T08:57:22;100537.5;;;-2.89;78.53
23361;BME280;11852;50.082;18.554;2022-12-18T08:58:29;100537.5;;;-2.88;78.02
23361;BME280;11852;50.082;18.554;2022-12-18T08:59:37;100538.0;;;-2.91;77.67
23361;BME280;11852;50.082;18.554;2022-12-18T09:00:44;100536.5;;;-2.88;77.21
23361;BME280;11852;50.082;18.554;2022-12-18T09:01:53;100535.5;;;-2.97;77.44
23361;BME280;11852;50.082;18.554;2022-12-18T09:03:01;100538.0;;;-3.07;77.93
23361;BME280;11852;50.082;18.554;2022-12-18T09:04:09;100535.0;;;-3.0;78.01
23361;BME280;11852;50.082;18.554;2022-12-18T09:05:17;100536.5;;;-2.98;77.88
23361;BME280;11852;50.082;18.554;2022-12-18T09:06:25;100538.5;;;-3.03;78.14
23361;BME280;11852;50.082;18.554;2022-12-18T09:07:32;100540.0;;;-3.04;78.24
23361;BME280;11852;50.082;18.554;2022-12-18T09:08:43;100543.0;;;-3.08;78.33
23361;BME280;11852;50.082;18.554;2022-12-18T09:09:51;100543.5;;;-3.03;77.57
23361;BME280;11852;50.082;18.554;2022-12-18T09:10:59;100545.0;;;-3.01;77.31
23361;BME280;11852;50.082;18.554;2022-12-18T09:12:06;100549.5;;;-3.03;77.63
23361;BME280;11852;50.082;18.554;2022-12-18T09:13:16;100551.5;;;-2.96;77.03
23361;BME280;11852;50.082;18.554;2022-12-18T09:14:23;100552.0;;;-2.91;76.67
23361;BME280;11852;50.082;18.554;2022-12-18T09:15:30;100553.5;;;-2.9;76.5
23361;BME280;11852;50.082;18.554;2022-12-18T09:16:38;100557.5;;;-2.86;76.62
23361;BME280;11852;50.082;18.554;2022-12-18T09:17:45;100551.0;;;-3.01;77.02
23361;BME280;11852;50.082;18.554;2022-12-18T09:18:52;100552.0;;;-3.04;76.71
23361;BME280;11852;50.082;18.554;2022-12-18T09:20:01;100549.0;;;-2.98;76.76
23361;BME280;11852;50.082;18.554;2022-12-18T09:21:16;100544.0;;;-2.93;77.15
23361;BME280;11852;50.082;18.554;2022-12-18T09:22:20;100544.5;;;-2.86;77.61
23361;BME280;11852;50.082;18.554;2022-12-18T09:23:27;100546.0;;;-2.78;77.9
23361;BME280;11852;50.082;18.554;2022-12-18T09:24:36;100544.5;;;-2.7;77.98
23361;BME280;11852;50.082;18.554;2022-12-18T09:25:44;100543.0;;;-2.69;78.17
23361;BME280;11852;50.082;18.554;2022-12-18T09:26:54;100546.0;;;-2.59;77.6
23361;BME280;11852;50.082;18.554;2022-12-18T09:28:11;100543.0;;;-2.68;77.56
23361;BME280;11852;50.082;18.554;2022-12-18T09:29:13;100543.0;;;-2.61;77.17
23361;BME280;11852;50.082;18.554;2022-12-18T09:30:20;100541.5;;;-2.57;76.96
23361;BME280;11852;50.082;18.554;2022-12-18T09:31:28;100537.5;;;-2.8;77.57
23361;BME280;11852;50.082;18.554;2022-12-18T09:32:35;100540.5;;;-2.84;77.08
23361;BME280;11852;50.082;18.554;2022-12-18T09:33:43;100536.5;;;-2.82;76.24
23361;BME280;11852;50.082;18.554;2022-12-18T09:34:50;100537.5;;;-2.7;75.71
23361;BME280;11852;50.082;18.554;2022-12-18T09:36:00;100535.5;;;-2.76;75.86
23361;BME280;11852;50.082;18.554;2022-12-18T09:37:06;100536.0;;;-2.9;75.86
23361;BME280;11852;50.082;18.554;2022-12-18T09:38:14;100536.5;;;-3.01;76.2
23361;BME280;11852;50.082;18.554;2022-12-18T09:39:21;100536.0;;;-2.94;76.37
23361;BME280;11852;50.082;18.554;2022-12-18T09:40:31;100536.5;;;-2.9;75.82
23361;BME280;11852;50.082;18.554;2022-12-18T09:42:53;100536.5;;;-2.85;75.61
23361;BME280;11852;50.082;18.554;2022-12-18T09:44:05;100539.0;;;-2.76;75.0
23361;BME280;11852;50.082;18.554;2022-12-18T09:45:12;100536.5;;;-2.91;75.24
23361;BME280;11852;50.082;18.554;2022-12-18T09:46:25;100534.0;;;-2.88;74.56
23361;BME280;11852;50.082;18.554;2022-12-18T09:47:33;100536.0;;;-2.93;74.76
23361;BME280;11852;50.082;18.554;2022-12-18T09:48:44;100538.0;;;-2.95;75.0
23361;BME280;11852;50.082;18.554;2022-12-18T09:49:52;100543.5;;;-3.03;75.1
23361;BME280;11852;50.082;18.554;2022-12-18T09:51:00;100545.0;;;-2.93;75.16
23361;BME280;11852;50.082;18.554;2022-12-18T09:52:09;100544.5;;;-2.85;74.78
23361;BME280;11852;50.082;18.554;2022-12-18T09:53:19;100546.0;;;-2.9;74.98
23361;BME280;11852;50.082;18.554;2022-12-18T09:54:26;100546.5;;;-2.86;75.22
23361;BME280;11852;50.082;18.554;2022-12-18T09:55:40;100545.49;;;-2.8;75.54
23361;BME280;11852;50.082;18.554;2022-12-18T09:56:52;100551.0;;;-2.79;75.14
23361;BME280;11852;50.082;18.554;2022-12-18T09:58:02;100553.5;;;-2.89;75.07
23361;BME280;11852;50.082;18.554;2022-12-18T09:59:21;100554.0;;;-2.86;74.71
23361;BME280;11852;50.082;18.554;2022-12-18T10:00:19;100552.0;;;-2.88;74.91
23361;BME280;11852;50.082;18.554;2022-12-18T10:01:27;100553.5;;;-3.01;75.51
23361;BME280;11852;50.082;18.554;2022-12-18T10:02:33;100551.0;;;-2.96;75.64
23361;BME280;11852;50.082;18.554;2022-12-18T10:03:41;100550.0;;;-2.9;75.41
23361;BME280;11852;50.082;18.554;2022-12-18T10:05:07;100549.5;;;-2.8;74.71
23361;BME280;11852;50.082;18.554;2022-12-18T10:06:11;100550.5;;;-2.82;75.41
23361;BME280;11852;50.082;18.554;2022-12-18T10:07:17;100548.0;;;-2.68;75.03
23361;BME280;11852;50.082;18.554;2022-12-18T10:08:34;100545.0;;;-2.51;74.27
23361;BME280;11852;50.082;18.554;2022-12-18T10:10:56;100543.5;;;-2.39;74.29
23361;BME280;11852;50.082;18.554;2022-12-18T10:17:05;100527.5;;;-2.24;73.14
23361;BME280;11852;50.082;18.554;2022-12-18T10:20:43;100518.01;;;-2.18;73.11
23361;BME280;11852;50.082;18.554;2022-12-18T10:24:26;100527.5;;;-2.06;72.15
23361;BME280;11852;50.082;18.554;2022-12-18T10:26:45;100525.5;;;-2.06;72.09
23361;BME280;11852;50.082;18.554;2022-12-18T10:27:54;100529.0;;;-1.93;72.17
23361;BME280;11852;50.082;18.554;2022-12-18T10:29:00;100526.0;;;-1.94;72.01
23361;BME280;11852;50.082;18.554;2022-12-18T10:30:15;100526.0;;;-1.95;71.92
23361;BME280;11852;50.082;18.554;2022-12-18T10:31:21;100528.0;;;-1.88;72.11
23361;BME280;11852;50.082;18.554;2022-12-18T10:32:28;100525.0;;;-1.91;71.64
23361;BME280;11852;50.082;18.554;2022-12-18T10:33:36;100522.0;;;-1.89;71.1
23361;BME280;11852;50.082;18.554;2022-12-18T10:34:48;100522.5;;;-1.82;71.65
23361;BME280;11852;50.082;18.554;2022-12-18T10:35:55;100519.0;;;-1.85;71.66
23361;BME280;11852;50.082;18.554;2022-12-18T10:37:03;100518.5;;;-1.8;71.42
23361;BME280;11852;50.082;18.554;2022-12-18T10:38:23;100513.0;;;-1.8;70.99
23361;BME280;11852;50.082;18.554;2022-12-18T10:39:30;100506.5;;;-1.82;71.4
23361;BME280;11852;50.082;18.554;2022-12-18T10:42:11;100505.51;;;-1.95;71.79
23361;BME280;11852;50.082;18.554;2022-12-18T10:44:40;100509.5;;;-1.98;71.46
23361;BME280;11852;50.082;18.554;2022-12-18T10:47:11;100507.99;;;-1.95;72.21
23361;BME280;11852;50.082;18.554;2022-12-18T10:48:19;100506.5;;;-1.98;71.9
23361;BME280;11852;50.082;18.554;2022-12-18T10:49:27;100505.5;;;-1.98;71.97
23361;BME280;11852;50.082;18.554;2022-12-18T10:50:36;100498.0;;;-1.94;72.29
23361;BME280;11852;50.082;18.554;2022-12-18T10:51:44;100499.5;;;-1.85;71.92
23361;BME280;11852;50.082;18.554;2022-12-18T10:53:01;100498.0;;;-1.89;71.6
23361;BME280;11852;50.082;18.554;2022-12-18T10:54:18;100498.0;;;-1.84;71.43
23361;BME280;11852;50.082;18.554;2022-12-18T10:55:23;100497.0;;;-1.85;71.55
23361;BME280;11852;50.082;18.554;2022-12-18T10:56:31;100496.5;;;-1.82;71.49
23361;BME280;11852;50.082;18.554;2022-12-18T10:57:40;100496.5;;;-1.88;71.17
23361;BME280;11852;50.082;18.554;2022-12-18T10:58:58;100494.0;;;-1.84;71.08
23361;BME280;11852;50.082;18.554;2022-12-18T11:01:24;100494.5;;;-1.87;71.96
23361;BME280;11852;50.082;18.554;2022-12-18T11:02:35;100493.0;;;-1.87;71.92
23361;BME280;11852;50.082;18.554;2022-12-18T11:03:58;100496.5;;;-1.85;71.36
23361;BME280;11852;50.082;18.554;2022-12-18T11:04:51;100498.0;;;-1.9;71.64
23361;BME280;11852;50.082;18.554;2022-12-18T11:06:21;100496.0;;;-1.9;71.72
23361;BME280;11852;50.082;18.554;2022-12-18T11:07:13;100495.0;;;-1.86;71.57
23361;BME280;11852;50.082;18.554;2022-12-18T11:08:20;100494.5;;;-1.87;71.69
23361;BME280;11852;50.082;18.554;2022-12-18T11:09:28;100492.5;;;-1.91;71.68
23361;BME280;11852;50.082;18.554;2022-12-18T11:10:37;100487.0;;;-1.88;71.74
23361;BME280;11852;50.082;18.554;2022-12-18T11:11:50;100482.49;;;-1.92;71.71
23361;BME280;11852;50.082;18.554;2022-12-18T11:14:18;100476.5;;;-1.92;72.07
23361;BME280;11852;50.082;18.554;2022-12-18T11:15:27;100476.5;;;-1.89;71.74
23361;BME280;11852;50.082;18.554;2022-12-18T11:16:36;100477.0;;;-1.96;71.98
23361;BME280;11852;50.082;18.554;2022-12-18T11:17:43;100475.0;;;-2.2;72.23
23361;BME280;11852;50.082;18.554;2022-12-18T11:18:51;100475.0;;;-2.16;72.03
23361;BME280;11852;50.082;18.554;2022-12-18T11:19:59;100478.0;;;-2.1;71.41
23361;BME280;11852;50.082;18.554;2022-12-18T11:21:07;100482.0;;;-1.96;71.51
23361;BME280;11852;50.082;18.554;2022-12-18T11:22:23;100482.0;;;-1.95;71.42
23361;BME280;11852;50.082;18.554;2022-12-18T11:23:30;100483.5;;;-1.94;71.21
23361;BME280;11852;50.082;18.554;2022-12-18T11:24:38;100483.5;;;-1.98;71.13
23361;BME280;11852;50.082;18.554;2022-12-18T11:25:56;100484.0;;;-1.97;70.87
23361;BME280;11852;50.082;18.554;2022-12-18T11:27:04;100484.0;;;-1.96;70.24
23361;BME280;11852;50.082;18.554;2022-12-18T11:29:32;100490.0;;;-1.92;70.18
23361;BME280;11852;50.082;18.554;2022-12-18T11:30:38;100495.0;;;-2.0;70.43
23361;BME280;11852;50.082;18.554;2022-12-18T11:31:45;100498.0;;;-2.0;69.83
23361;BME280;11852;50.082;18.554;2022-12-18T11:36:46;100504.0;;;-2.31;70.18
23361;BME280;11852;50.082;18.554;2022-12-18T11:37:51;100506.0;;;-2.2;70.25
23361;BME280;11852;50.082;18.554;2022-12-18T11:38:57;100506.5;;;-2.15;70.49
23361;BME280;11852;50.082;18.554;2022-12-18T11:43:15;100509.5;;;-1.82;70.43
23361;BME280;11852;50.082;18.554;2022-12-18T11:43:43;100510.5;;;-1.88;70.24
23361;BME280;11852;50.082;18.554;2022-12-18T11:44:49;100513.0;;;-1.88;70.74
23361;BME280;11852;50.082;18.554;2022-12-18T11:46:02;100514.0;;;-1.88;70.46
23361;BME280;11852;50.082;18.554;2022-12-18T11:49:13;100513.5;;;-2.0;70.45
23361;BME280;11852;50.082;18.554;2022-12-18T11:49:38;100513.0;;;-2.05;71.22
23361;BME280;11852;50.082;18.554;2022-12-18T11:50:50;100512.5;;;-2.1;71.28
23361;BME280;11852;50.082;18.554;2022-12-18T11:51:58;100513.5;;;-1.99;70.33
23361;BME280;11852;50.082;18.554;2022-12-18T11:53:03;100513.5;;;-1.96;70.43
23361;BME280;11852;50.082;18.554;2022-12-18T11:54:14;100517.5;;;-1.97;70.35
23361;BME280;11852;50.082;18.554;2022-12-18T11:56:36;100523.5;;;-1.95;70.84
23361;BME280;11852;50.082;18.554;2022-12-18T11:57:52;100519.0;;;-1.88;70.92
23361;BME280;11852;50.082;18.554;2022-12-18T12:11:34;100522.0;;;-1.99;69.82
23361;BME280;11852;50.082;18.554;2022-12-18T12:15:13;100526.5;;;-1.87;69.99
23361;BME280;11852;50.082;18.554;2022-12-18T12:17:45;100525.5;;;-1.83;69.72
23361;BME280;11852;50.082;18.554;2022-12-18T12:20:05;100522.0;;;-1.96;70.18
23361;BME280;11852;50.082;18.554;2022-12-18T12:26:11;100529.0;;;-1.95;70.6
23361;BME280;11852;50.082;18.554;2022-12-18T12:27:29;100526.5;;;-2.04;70.35
23361;BME280;11852;50.082;18.554;2022-12-18T12:29:52;100529.5;;;-2.1;70.67
23361;BME280;11852;50.082;18.554;2022-12-18T12:34:46;100533.5;;;-2.08;71.02
23361;BME280;11852;50.082;18.554;2022-12-18T12:35:55;100534.0;;;-2.1;71.23
23361;BME280;11852;50.082;18.554;2022-12-18T12:38:19;100531.0;;;-2.18;71.67
23361;BME280;11852;50.082;18.554;2022-12-18T12:39:26;100533.5;;;-2.17;71.89
23361;BME280;11852;50.082;18.554;2022-12-18T12:40:34;100535.5;;;-2.17;71.99
23361;BME280;11852;50.082;18.554;2022-12-18T12:41:44;100535.0;;;-2.13;71.75
23361;BME280;11852;50.082;18.554;2022-12-18T12:43:01;100538.0;;;-2.11;71.18
23361;BME280;11852;50.082;18.554;2022-12-18T12:44:07;100542.0;;;-2.09;71.01
23361;BME280;11852;50.082;18.554;2022-12-18T12:46:27;100537.0;;;-2.08;71.19
23361;BME280;11852;50.082;18.554;2022-12-18T12:47:38;100535.0;;;-2.1;70.85
23361;BME280;11852;50.082;18.554;2022-12-18T12:48:50;100538.0;;;-2.1;71.0
23361;BME280;11852;50.082;18.554;2022-12-18T12:49:54;100535.0;;;-2.11;71.06
23361;BME280;11852;50.082;18.554;2022-12-18T12:51:10;100533.0;;;-2.13;71.1
23361;BME280;11852;50.082;18.554;2022-12-18T12:53:40;100532.0;;;-2.09;71.29
23361;BME280;11852;50.082;18.554;2022-12-18T12:54:47;100528.0;;;-2.13;71.44
23361;BME280;11852;50.082;18.554;2022-12-18T12:55:54;100527.0;;;-2.11;71.0
23361;BME280;11852;50.082;18.554;2022-12-18T12:59:13;100525.5;;;-2.18;70.96
23361;BME280;11852;50.082;18.554;2022-12-18T13:01:14;100529.0;;;-2.16;71.13
23361;BME280;11852;50.082;18.554;2022-12-18T13:03:32;100532.0;;;-2.2;71.28
23361;BME280;11852;50.082;18.554;2022-12-18T13:04:42;100536.0;;;-2.31;71.11
23361;BME280;11852;50.082;18.554;2022-12-18T13:08:24;100538.0;;;-2.21;71.04
23361;BME280;11852;50.082;18.554;2022-12-18T13:09:30;100536.5;;;-2.21;70.88
23361;BME280;11852;50.082;18.554;2022-12-18T13:10:40;100537.5;;;-2.24;71.04
23361;BME280;11852;50.082;18.554;2022-12-18T13:11:52;100536.5;;;-2.28;71.19
23361;BME280;11852;50.082;18.554;2022-12-18T13:14:12;100543.5;;;-2.25;71.46
23361;BME280;11852;50.082;18.554;2022-12-18T13:15:20;100547.5;;;-2.23;71.81
23361;BME280;11852;50.082;18.554;2022-12-18T13:16:25;100545.0;;;-2.27;71.62
23361;BME280;11852;50.082;18.554;2022-12-18T13:17:33;100547.5;;;-2.27;71.97
23361;BME280;11852;50.082;18.554;2022-12-18T13:18:47;100548.0;;;-2.28;72.36
23361;BME280;11852;50.082;18.554;2022-12-18T13:19:52;100550.5;;;-2.3;72.35
23361;BME280;11852;50.082;18.554;2022-12-18T13:22:10;100550.0;;;-2.34;72.59
23361;BME280;11852;50.082;18.554;2022-12-18T13:23:19;100550.0;;;-2.39;72.68
23361;BME280;11852;50.082;18.554;2022-12-18T13:24:27;100545.49;;;-2.39;72.57
23361;BME280;11852;50.082;18.554;2022-12-18T13:25:35;100542.0;;;-2.47;72.82
23361;BME280;11852;50.082;18.554;2022-12-18T13:26:41;100542.5;;;-2.46;72.85
23361;BME280;11852;50.082;18.554;2022-12-18T13:29:01;100535.5;;;-2.47;72.82
23361;BME280;11852;50.082;18.554;2022-12-18T13:32:45;100540.5;;;-2.55;72.17
23361;BME280;11852;50.082;18.554;2022-12-18T13:33:52;100541.0;;;-2.52;72.52
23361;BME280;11852;50.082;18.554;2022-12-18T13:38:39;100541.5;;;-2.7;72.68
23361;BME280;11852;50.082;18.554;2022-12-18T13:39:47;100543.5;;;-2.84;73.07
23361;BME280;11852;50.082;18.554;2022-12-18T13:40:56;100542.0;;;-2.85;72.17
23361;BME280;11852;50.082;18.554;2022-12-18T13:45:47;100536.0;;;-2.87;72.13
23361;BME280;11852;50.082;18.554;2022-12-18T13:46:53;100536.5;;;-2.83;72.38
23361;BME280;11852;50.082;18.554;2022-12-18T13:48:02;100539.0;;;-2.82;72.51
23361;BME280;11852;50.082;18.554;2022-12-18T13:50:22;100539.0;;;-2.78;72.39
23361;BME280;11852;50.082;18.554;2022-12-18T13:51:31;100539.0;;;-2.76;72.6
23361;BME280;11852;50.082;18.554;2022-12-18T13:52:37;100539.0;;;-2.78;73.08
23361;BME280;11852;50.082;18.554;2022-12-18T13:53:54;100542.0;;;-2.71;72.83
23361;BME280;11852;50.082;18.554;2022-12-18T13:54:59;100540.0;;;-2.8;72.4
23361;BME280;11852;50.082;18.554;2022-12-18T13:56:08;100539.0;;;-2.77;72.47
23361;BME280;11852;50.082;18.554;2022-12-18T13:58:33;100540.0;;;-2.75;72.65
23361;BME280;11852;50.082;18.554;2022-12-18T13:59:40;100537.5;;;-2.76;72.56
23361;BME280;11852;50.082;18.554;2022-12-18T14:00:48;100536.0;;;-2.75;72.76
23361;BME280;11852;50.082;18.554;2022-12-18T14:01:55;100535.5;;;-2.77;72.78
23361;BME280;11852;50.082;18.554;2022-12-18T14:03:15;100535.0;;;-2.82;72.88
23361;BME280;11852;50.082;18.554;2022-12-18T14:04:32;100535.5;;;-2.78;72.92
23361;BME280;11852;50.082;18.554;2022-12-18T14:05:24;100538.0;;;-2.78;72.82
23361;BME280;11852;50.082;18.554;2022-12-18T14:06:27;100536.5;;;-2.78;72.96
23361;BME280;11852;50.082;18.554;2022-12-18T14:07:38;100540.0;;;-2.79;72.85
23361;BME280;11852;50.082;18.554;2022-12-18T14:08:50;100543.5;;;-2.88;72.53
23361;BME280;11852;50.082;18.554;2022-12-18T14:09:58;100541.5;;;-2.97;72.69
23361;BME280;11852;50.082;18.554;2022-12-18T14:11:05;100542.01;;;-2.96;72.56
23361;BME280;11852;50.082;18.554;2022-12-18T14:13:36;100540.0;;;-3.02;73.04
23361;BME280;11852;50.082;18.554;2022-12-18T14:14:44;100539.5;;;-3.09;73.32
23361;BME280;11852;50.082;18.554;2022-12-18T14:15:51;100544.0;;;-3.07;73.18
23361;BME280;11852;50.082;18.554;2022-12-18T14:16:59;100541.5;;;-3.13;73.3
23361;BME280;11852;50.082;18.554;2022-12-18T14:19:20;100544.0;;;-3.18;73.13
23361;BME280;11852;50.082;18.554;2022-12-18T14:20:33;100542.01;;;-3.22;73.56
23361;BME280;11852;50.082;18.554;2022-12-18T14:21:37;100539.5;;;-3.21;73.88
23361;BME280;11852;50.082;18.554;2022-12-18T14:22:47;100537.0;;;-3.25;74.07
23361;BME280;11852;50.082;18.554;2022-12-18T14:26:46;100542.51;;;-3.34;73.12
23361;BME280;11852;50.082;18.554;2022-12-18T14:29:18;100548.0;;;-3.47;73.36
23361;BME280;11852;50.082;18.554;2022-12-18T14:30:29;100550.5;;;-3.47;73.71
23361;BME280;11852;50.082;18.554;2022-12-18T14:31:34;100551.0;;;-3.53;74.02
23361;BME280;11852;50.082;18.554;2022-12-18T14:33:05;100550.0;;;-3.56;73.92
23361;BME280;11852;50.082;18.554;2022-12-18T14:34:16;100553.5;;;-3.64;74.03
23361;BME280;11852;50.082;18.554;2022-12-18T14:35:24;100552.5;;;-3.67;74.14
23361;BME280;11852;50.082;18.554;2022-12-18T14:36:32;100555.0;;;-3.71;74.27
23361;BME280;11852;50.082;18.554;2022-12-18T14:37:40;100557.49;;;-3.73;74.56
23361;BME280;11852;50.082;18.554;2022-12-18T14:40:37;100557.49;;;-3.73;74.56
23361;BME280;11852;50.082;18.554;2022-12-18T14:41:48;100563.5;;;-3.89;75.13
23361;BME280;11852;50.082;18.554;2022-12-18T14:42:55;100565.5;;;-3.94;75.45
23361;BME280;11852;50.082;18.554;2022-12-18T14:44:05;100564.5;;;-4.01;75.5
23361;BME280;11852;50.082;18.554;2022-12-18T14:47:54;100564.5;;;-4.05;75.85
23361;BME280;11852;50.082;18.554;2022-12-18T14:49:05;100568.51;;;-4.14;76.22
23361;BME280;11852;50.082;18.554;2022-12-18T14:50:13;100567.01;;;-4.19;76.26
23361;BME280;11852;50.082;18.554;2022-12-18T14:51:20;100568.0;;;-4.2;76.31
23361;BME280;11852;50.082;18.554;2022-12-18T14:52:27;100569.5;;;-4.23;76.41
23361;BME280;11852;50.082;18.554;2022-12-18T14:53:39;100569.99;;;-4.28;76.67
23361;BME280;11852;50.082;18.554;2022-12-18T14:54:47;100569.0;;;-4.32;76.69
23361;BME280;11852;50.082;18.554;2022-12-18T14:55:55;100566.5;;;-4.35;77.05
23361;BME280;11852;50.082;18.554;2022-12-18T14:57:14;100570.0;;;-4.38;77.4
23361;BME280;11852;50.082;18.554;2022-12-18T14:58:14;100571.5;;;-4.43;77.56
23361;BME280;11852;50.082;18.554;2022-12-18T14:59:22;100575.0;;;-4.45;77.6
23361;BME280;11852;50.082;18.554;2022-12-18T15:00:29;100578.0;;;-4.47;77.44